sensor_id;sensor_type;location;lat;lon;timestamp;P1;durP1;ratioP1;P2;durP2;ratioP2
28802;SDS011;15949;55.656;37.422;2023-07-29T00:04:01;7.13;;;4.80;;
28802;SDS011;15949;55.656;37.422;2023-07-29T00:09:07;12.25;;;4.82;;
28802;SDS011;15949;55.656;37.422;2023-07-29T00:14:13;8.35;;;5.28;;
28802;SDS011;15949;55.656;37.422;2023-07-29T00:19:19;9.80;;;5.05;;
28802;SDS011;15949;55.656;37.422;2023-07-29T00:24:25;7.80;;;4.90;;
28802;SDS011;15949;55.656;37.422;2023-07-29T00:29:30;10.63;;;6.03;;
28802;SDS011;15949;55.656;37.422;2023-07-29T00:34:36;6.97;;;4.53;;
28802;SDS011;15949;55.656;37.422;2023-07-29T00:39:42;9.88;;;5.47;;
28802;SDS011;15949;55.656;37.422;2023-07-29T00:44:47;19.90;;;6.38;;
28802;SDS011;15949;55.656;37.422;2023-07-29T00:49:53;9.40;;;5.85;;
28802;SDS011;15949;55.656;37.422;2023-07-29T00:54:58;8.32;;;6.13;;
28802;SDS011;15949;55.656;37.422;2023-07-29T01:00:04;6.65;;;4.95;;
28802;SDS011;15949;55.656;37.422;2023-07-29T01:05:11;8.98;;;6.07;;
28802;SDS011;15949;55.656;37.422;2023-07-29T01:20:45;10.95;;;6.03;;
28802;SDS011;15949;55.656;37.422;2023-07-29T01:25:53;12.13;;;6.28;;
28802;SDS011;15949;55.656;37.422;2023-07-29T01:31:02;10.65;;;6.90;;
28802;SDS011;15949;55.656;37.422;2023-07-29T01:36:15;11.75;;;6.80;;
28802;SDS011;15949;55.656;37.422;2023-07-29T01:41:25;7.68;;;6.57;;
28802;SDS011;15949;55.656;37.422;2023-07-29T01:46:33;12.77;;;10.23;;
28802;SDS011;15949;55.656;37.422;2023-07-29T01:51:39;13.18;;;8.75;;
28802;SDS011;15949;55.656;37.422;2023-07-29T01:56:44;11.45;;;6.00;;
28802;SDS011;15949;55.656;37.422;2023-07-29T02:01:50;10.05;;;6.50;;
28802;SDS011;15949;55.656;37.422;2023-07-29T02:06:56;8.75;;;6.25;;
28802;SDS011;15949;55.656;37.422;2023-07-29T02:12:01;10.93;;;5.30;;
28802;SDS011;15949;55.656;37.422;2023-07-29T02:17:07;7.97;;;5.45;;
28802;SDS011;15949;55.656;37.422;2023-07-29T02:22:14;12.82;;;7.78;;
28802;SDS011;15949;55.656;37.422;2023-07-29T02:27:20;10.95;;;8.23;;
28802;SDS011;15949;55.656;37.422;2023-07-29T02:32:26;11.38;;;7.93;;
28802;SDS011;15949;55.656;37.422;2023-07-29T02:37:32;11.25;;;7.03;;
28802;SDS011;15949;55.656;37.422;2023-07-29T02:42:37;9.07;;;6.60;;
28802;SDS011;15949;55.656;37.422;2023-07-29T02:47:43;10.45;;;6.88;;
28802;SDS011;15949;55.656;37.422;2023-07-29T02:52:49;9.52;;;7.50;;
28802;SDS011;15949;55.656;37.422;2023-07-29T02:57:54;7.75;;;6.30;;
28802;SDS011;15949;55.656;37.422;2023-07-29T03:03:00;11.18;;;8.07;;
28802;SDS011;15949;55.656;37.422;2023-07-29T03:08:05;10.35;;;7.85;;
28802;SDS011;15949;55.656;37.422;2023-07-29T03:13:11;15.57;;;8.48;;
28802;SDS011;15949;55.656;37.422;2023-07-29T03:18:16;13.85;;;9.02;;
28802;SDS011;15949;55.656;37.422;2023-07-29T03:23:22;12.98;;;8.73;;
28802;SDS011;15949;55.656;37.422;2023-07-29T03:28:29;11.57;;;8.40;;
28802;SDS011;15949;55.656;37.422;2023-07-29T03:33:35;9.98;;;7.10;;
28802;SDS011;15949;55.656;37.422;2023-07-29T03:38:41;8.18;;;7.22;;
28802;SDS011;15949;55.656;37.422;2023-07-29T03:43:46;10.35;;;8.18;;
28802;SDS011;15949;55.656;37.422;2023-07-29T03:48:52;10.93;;;8.85;;
28802;SDS011;15949;55.656;37.422;2023-07-29T03:53:58;12.18;;;7.68;;
28802;SDS011;15949;55.656;37.422;2023-07-29T03:59:04;10.07;;;8.45;;
28802;SDS011;15949;55.656;37.422;2023-07-29T04:04:10;13.43;;;8.73;;
28802;SDS011;15949;55.656;37.422;2023-07-29T04:09:16;12.88;;;8.13;;
28802;SDS011;15949;55.656;37.422;2023-07-29T04:14:21;13.65;;;8.90;;
28802;SDS011;15949;55.656;37.422;2023-07-29T04:19:27;9.82;;;7.75;;
28802;SDS011;15949;55.656;37.422;2023-07-29T04:24:32;12.30;;;8.95;;
28802;SDS011;15949;55.656;37.422;2023-07-29T04:29:38;13.57;;;9.02;;
28802;SDS011;15949;55.656;37.422;2023-07-29T04:34:44;11.30;;;8.13;;
28802;SDS011;15949;55.656;37.422;2023-07-29T04:39:49;11.10;;;7.18;;
28802;SDS011;15949;55.656;37.422;2023-07-29T04:44:55;9.90;;;7.07;;
28802;SDS011;15949;55.656;37.422;2023-07-29T04:50:01;12.02;;;9.65;;
28802;SDS011;15949;55.656;37.422;2023-07-29T04:55:06;11.60;;;7.40;;
28802;SDS011;15949;55.656;37.422;2023-07-29T05:00:12;11.85;;;8.68;;
28802;SDS011;15949;55.656;37.422;2023-07-29T05:05:18;10.82;;;8.93;;
28802;SDS011;15949;55.656;37.422;2023-07-29T05:10:24;11.15;;;7.63;;
28802;SDS011;15949;55.656;37.422;2023-07-29T05:15:30;9.13;;;6.60;;
28802;SDS011;15949;55.656;37.422;2023-07-29T05:20:35;8.43;;;6.90;;
28802;SDS011;15949;55.656;37.422;2023-07-29T05:25:41;13.65;;;8.32;;
28802;SDS011;15949;55.656;37.422;2023-07-29T05:30:46;9.65;;;7.40;;
28802;SDS011;15949;55.656;37.422;2023-07-29T05:35:52;11.05;;;7.15;;
28802;SDS011;15949;55.656;37.422;2023-07-29T05:40:57;9.52;;;7.00;;
28802;SDS011;15949;55.656;37.422;2023-07-29T05:46:03;9.65;;;7.75;;
28802;SDS011;15949;55.656;37.422;2023-07-29T05:51:09;10.57;;;6.78;;
28802;SDS011;15949;55.656;37.422;2023-07-29T05:56:14;12.18;;;7.57;;
28802;SDS011;15949;55.656;37.422;2023-07-29T06:01:20;11.40;;;6.95;;
28802;SDS011;15949;55.656;37.422;2023-07-29T06:06:26;8.13;;;6.50;;
28802;SDS011;15949;55.656;37.422;2023-07-29T06:11:32;7.85;;;6.60;;
28802;SDS011;15949;55.656;37.422;2023-07-29T06:16:37;7.70;;;5.75;;
28802;SDS011;15949;55.656;37.422;2023-07-29T06:21:43;7.80;;;6.60;;
28802;SDS011;15949;55.656;37.422;2023-07-29T06:26:49;7.72;;;5.97;;
28802;SDS011;15949;55.656;37.422;2023-07-29T06:31:54;8.88;;;5.80;;
28802;SDS011;15949;55.656;37.422;2023-07-29T06:37:00;7.88;;;5.80;;
28802;SDS011;15949;55.656;37.422;2023-07-29T06:42:05;10.23;;;6.13;;
28802;SDS011;15949;55.656;37.422;2023-07-29T06:47:11;10.02;;;6.43;;
28802;SDS011;15949;55.656;37.422;2023-07-29T06:52:17;13.73;;;6.68;;
28802;SDS011;15949;55.656;37.422;2023-07-29T06:57:23;13.20;;;7.25;;
28802;SDS011;15949;55.656;37.422;2023-07-29T07:02:28;10.95;;;7.60;;
28802;SDS011;15949;55.656;37.422;2023-07-29T07:07:34;10.30;;;7.25;;
28802;SDS011;15949;55.656;37.422;2023-07-29T07:12:39;9.35;;;7.38;;
28802;SDS011;15949;55.656;37.422;2023-07-29T07:17:45;11.20;;;7.32;;
28802;SDS011;15949;55.656;37.422;2023-07-29T07:22:51;8.40;;;6.10;;
28802;SDS011;15949;55.656;37.422;2023-07-29T07:27:56;10.63;;;7.30;;
28802;SDS011;15949;55.656;37.422;2023-07-29T07:33:02;8.82;;;6.90;;
28802;SDS011;15949;55.656;37.422;2023-07-29T07:38:08;8.52;;;6.90;;
28802;SDS011;15949;55.656;37.422;2023-07-29T07:43:15;9.20;;;7.03;;
28802;SDS011;15949;55.656;37.422;2023-07-29T07:48:20;11.75;;;7.88;;
28802;SDS011;15949;55.656;37.422;2023-07-29T07:53:26;5.97;;;5.00;;
28802;SDS011;15949;55.656;37.422;2023-07-29T07:58:31;6.45;;;5.63;;
28802;SDS011;15949;55.656;37.422;2023-07-29T08:03:37;8.90;;;4.82;;
28802;SDS011;15949;55.656;37.422;2023-07-29T08:08:43;6.22;;;4.85;;
28802;SDS011;15949;55.656;37.422;2023-07-29T08:13:48;8.65;;;5.93;;
28802;SDS011;15949;55.656;37.422;2023-07-29T08:18:54;8.15;;;5.82;;
28802;SDS011;15949;55.656;37.422;2023-07-29T08:24:00;10.25;;;7.70;;
28802;SDS011;15949;55.656;37.422;2023-07-29T08:29:05;16.08;;;8.38;;
28802;SDS011;15949;55.656;37.422;2023-07-29T08:34:11;10.15;;;7.03;;
28802;SDS011;15949;55.656;37.422;2023-07-29T08:39:16;9.23;;;6.47;;
28802;SDS011;15949;55.656;37.422;2023-07-29T08:44:23;8.63;;;6.72;;
28802;SDS011;15949;55.656;37.422;2023-07-29T08:49:31;8.53;;;5.73;;
28802;SDS011;15949;55.656;37.422;2023-07-29T08:54:38;9.75;;;5.57;;
28802;SDS011;15949;55.656;37.422;2023-07-29T08:59:44;10.95;;;7.40;;
28802;SDS011;15949;55.656;37.422;2023-07-29T09:04:50;9.18;;;6.22;;
28802;SDS011;15949;55.656;37.422;2023-07-29T09:09:56;7.47;;;6.10;;
28802;SDS011;15949;55.656;37.422;2023-07-29T09:15:01;9.80;;;5.72;;
28802;SDS011;15949;55.656;37.422;2023-07-29T09:20:09;11.35;;;6.55;;
28802;SDS011;15949;55.656;37.422;2023-07-29T09:25:15;10.10;;;6.05;;
28802;SDS011;15949;55.656;37.422;2023-07-29T09:30:22;8.40;;;4.72;;
28802;SDS011;15949;55.656;37.422;2023-07-29T09:35:28;8.73;;;6.20;;
28802;SDS011;15949;55.656;37.422;2023-07-29T09:40:35;7.15;;;5.22;;
28802;SDS011;15949;55.656;37.422;2023-07-29T09:45:42;7.82;;;5.40;;
28802;SDS011;15949;55.656;37.422;2023-07-29T09:50:47;8.88;;;5.60;;
28802;SDS011;15949;55.656;37.422;2023-07-29T09:55:53;7.30;;;5.82;;
28802;SDS011;15949;55.656;37.422;2023-07-29T10:00:59;9.98;;;5.90;;
28802;SDS011;15949;55.656;37.422;2023-07-29T10:06:05;8.10;;;5.97;;
28802;SDS011;15949;55.656;37.422;2023-07-29T10:11:11;8.73;;;6.53;;
28802;SDS011;15949;55.656;37.422;2023-07-29T10:16:17;10.32;;;6.32;;
28802;SDS011;15949;55.656;37.422;2023-07-29T10:21:23;10.23;;;7.45;;
28802;SDS011;15949;55.656;37.422;2023-07-29T10:26:29;8.93;;;6.68;;
28802;SDS011;15949;55.656;37.422;2023-07-29T10:31:39;10.60;;;6.53;;
28802;SDS011;15949;55.656;37.422;2023-07-29T10:36:48;9.40;;;5.88;;
28802;SDS011;15949;55.656;37.422;2023-07-29T10:41:58;13.43;;;7.10;;
28802;SDS011;15949;55.656;37.422;2023-07-29T10:47:11;8.18;;;6.20;;
28802;SDS011;15949;55.656;37.422;2023-07-29T10:57:40;8.52;;;5.13;;
28802;SDS011;15949;55.656;37.422;2023-07-29T11:03:00;9.15;;;6.50;;
28802;SDS011;15949;55.656;37.422;2023-07-29T11:13:33;7.38;;;5.13;;
28802;SDS011;15949;55.656;37.422;2023-07-29T11:18:42;10.57;;;5.20;;
28802;SDS011;15949;55.656;37.422;2023-07-29T11:23:50;10.43;;;6.32;;
28802;SDS011;15949;55.656;37.422;2023-07-29T11:28:58;5.33;;;4.73;;
28802;SDS011;15949;55.656;37.422;2023-07-29T11:34:06;7.03;;;4.95;;
28802;SDS011;15949;55.656;37.422;2023-07-29T11:39:12;7.88;;;5.63;;
28802;SDS011;15949;55.656;37.422;2023-07-29T11:44:18;7.63;;;4.68;;
28802;SDS011;15949;55.656;37.422;2023-07-29T11:49:23;7.15;;;5.97;;
28802;SDS011;15949;55.656;37.422;2023-07-29T11:54:29;8.18;;;5.28;;
28802;SDS011;15949;55.656;37.422;2023-07-29T11:59:35;6.68;;;5.45;;
28802;SDS011;15949;55.656;37.422;2023-07-29T12:04:41;8.18;;;5.43;;
28802;SDS011;15949;55.656;37.422;2023-07-29T12:09:49;11.48;;;5.38;;
28802;SDS011;15949;55.656;37.422;2023-07-29T12:14:55;7.43;;;4.07;;
28802;SDS011;15949;55.656;37.422;2023-07-29T12:20:01;5.38;;;3.55;;
28802;SDS011;15949;55.656;37.422;2023-07-29T12:25:07;5.10;;;3.30;;
28802;SDS011;15949;55.656;37.422;2023-07-29T12:30:13;6.95;;;3.80;;
28802;SDS011;15949;55.656;37.422;2023-07-29T12:35:19;5.45;;;3.10;;
28802;SDS011;15949;55.656;37.422;2023-07-29T12:40:25;7.68;;;3.03;;
28802;SDS011;15949;55.656;37.422;2023-07-29T12:45:35;6.60;;;3.40;;
28802;SDS011;15949;55.656;37.422;2023-07-29T12:50:41;7.20;;;3.90;;
28802;SDS011;15949;55.656;37.422;2023-07-29T12:55:46;6.53;;;3.30;;
28802;SDS011;15949;55.656;37.422;2023-07-29T13:00:52;4.40;;;3.10;;
28802;SDS011;15949;55.656;37.422;2023-07-29T13:05:59;8.85;;;3.80;;
28802;SDS011;15949;55.656;37.422;2023-07-29T13:11:05;6.88;;;3.28;;
28802;SDS011;15949;55.656;37.422;2023-07-29T13:16:10;10.27;;;4.10;;
28802;SDS011;15949;55.656;37.422;2023-07-29T13:21:17;8.57;;;3.85;;
28802;SDS011;15949;55.656;37.422;2023-07-29T13:26:22;10.32;;;3.22;;
28802;SDS011;15949;55.656;37.422;2023-07-29T13:31:28;8.95;;;3.28;;
28802;SDS011;15949;55.656;37.422;2023-07-29T13:36:33;4.72;;;3.10;;
28802;SDS011;15949;55.656;37.422;2023-07-29T13:41:39;5.45;;;2.60;;
28802;SDS011;15949;55.656;37.422;2023-07-29T13:46:44;5.88;;;3.17;;
28802;SDS011;15949;55.656;37.422;2023-07-29T13:51:50;5.82;;;3.08;;
28802;SDS011;15949;55.656;37.422;2023-07-29T13:56:55;7.65;;;3.40;;
28802;SDS011;15949;55.656;37.422;2023-07-29T14:02:01;8.38;;;3.50;;
28802;SDS011;15949;55.656;37.422;2023-07-29T14:07:07;6.05;;;2.97;;
28802;SDS011;15949;55.656;37.422;2023-07-29T14:12:12;9.32;;;3.35;;
28802;SDS011;15949;55.656;37.422;2023-07-29T14:17:19;8.05;;;3.72;;
28802;SDS011;15949;55.656;37.422;2023-07-29T14:22:25;10.98;;;3.30;;
28802;SDS011;15949;55.656;37.422;2023-07-29T14:27:31;6.53;;;3.03;;
28802;SDS011;15949;55.656;37.422;2023-07-29T14:32:36;6.57;;;3.60;;
28802;SDS011;15949;55.656;37.422;2023-07-29T14:37:42;7.05;;;3.10;;
28802;SDS011;15949;55.656;37.422;2023-07-29T14:42:48;9.05;;;2.58;;
28802;SDS011;15949;55.656;37.422;2023-07-29T14:47:53;7.95;;;3.00;;
28802;SDS011;15949;55.656;37.422;2023-07-29T14:52:59;10.60;;;3.45;;
28802;SDS011;15949;55.656;37.422;2023-07-29T14:58:04;8.60;;;3.40;;
28802;SDS011;15949;55.656;37.422;2023-07-29T15:03:10;8.25;;;3.38;;
28802;SDS011;15949;55.656;37.422;2023-07-29T15:08:15;10.88;;;3.47;;
28802;SDS011;15949;55.656;37.422;2023-07-29T15:13:21;5.97;;;3.30;;
28802;SDS011;15949;55.656;37.422;2023-07-29T15:18:27;8.60;;;3.28;;
28802;SDS011;15949;55.656;37.422;2023-07-29T15:23:35;6.50;;;3.70;;
28802;SDS011;15949;55.656;37.422;2023-07-29T15:28:40;16.80;;;9.00;;
28802;SDS011;15949;55.656;37.422;2023-07-29T15:33:46;12.82;;;8.20;;
28802;SDS011;15949;55.656;37.422;2023-07-29T15:38:51;27.38;;;19.42;;
28802;SDS011;15949;55.656;37.422;2023-07-29T15:43:57;19.75;;;14.30;;
28802;SDS011;15949;55.656;37.422;2023-07-29T15:49:03;21.13;;;13.25;;
28802;SDS011;15949;55.656;37.422;2023-07-29T15:54:09;17.05;;;11.98;;
28802;SDS011;15949;55.656;37.422;2023-07-29T15:59:15;16.98;;;8.80;;
28802;SDS011;15949;55.656;37.422;2023-07-29T16:04:20;17.80;;;10.27;;
28802;SDS011;15949;55.656;37.422;2023-07-29T16:09:26;15.52;;;6.40;;
28802;SDS011;15949;55.656;37.422;2023-07-29T16:14:32;17.02;;;11.18;;
28802;SDS011;15949;55.656;37.422;2023-07-29T16:19:56;8.70;;;4.68;;
28802;SDS011;15949;55.656;37.422;2023-07-29T16:25:04;13.82;;;6.63;;
28802;SDS011;15949;55.656;37.422;2023-07-29T16:30:10;15.10;;;7.30;;
28802;SDS011;15949;55.656;37.422;2023-07-29T16:35:16;13.60;;;6.50;;
28802;SDS011;15949;55.656;37.422;2023-07-29T16:40:21;9.75;;;4.93;;
28802;SDS011;15949;55.656;37.422;2023-07-29T16:45:27;11.13;;;5.13;;
28802;SDS011;15949;55.656;37.422;2023-07-29T16:50:33;9.32;;;4.22;;
28802;SDS011;15949;55.656;37.422;2023-07-29T16:55:41;9.80;;;4.50;;
28802;SDS011;15949;55.656;37.422;2023-07-29T17:00:46;10.93;;;4.90;;
28802;SDS011;15949;55.656;37.422;2023-07-29T17:05:52;12.82;;;5.10;;
28802;SDS011;15949;55.656;37.422;2023-07-29T17:11:00;11.33;;;5.33;;
28802;SDS011;15949;55.656;37.422;2023-07-29T17:16:06;16.77;;;5.97;;
28802;SDS011;15949;55.656;37.422;2023-07-29T17:21:11;15.80;;;6.10;;
28802;SDS011;15949;55.656;37.422;2023-07-29T17:26:17;8.50;;;5.15;;
28802;SDS011;15949;55.656;37.422;2023-07-29T17:31:22;15.57;;;7.47;;
28802;SDS011;15949;55.656;37.422;2023-07-29T17:36:29;13.82;;;7.22;;
28802;SDS011;15949;55.656;37.422;2023-07-29T17:41:35;19.02;;;7.32;;
28802;SDS011;15949;55.656;37.422;2023-07-29T17:46:40;10.85;;;6.65;;
28802;SDS011;15949;55.656;37.422;2023-07-29T17:51:46;16.42;;;9.40;;
28802;SDS011;15949;55.656;37.422;2023-07-29T17:56:52;19.20;;;8.50;;
28802;SDS011;15949;55.656;37.422;2023-07-29T18:01:58;19.02;;;8.32;;
28802;SDS011;15949;55.656;37.422;2023-07-29T18:07:03;18.17;;;8.93;;
28802;SDS011;15949;55.656;37.422;2023-07-29T18:12:09;26.50;;;16.35;;
28802;SDS011;15949;55.656;37.422;2023-07-29T18:17:15;31.35;;;21.63;;
28802;SDS011;15949;55.656;37.422;2023-07-29T18:22:20;33.15;;;23.83;;
28802;SDS011;15949;55.656;37.422;2023-07-29T18:27:26;39.53;;;24.02;;
28802;SDS011;15949;55.656;37.422;2023-07-29T18:32:32;43.22;;;25.67;;
28802;SDS011;15949;55.656;37.422;2023-07-29T18:37:37;41.75;;;25.15;;
28802;SDS011;15949;55.656;37.422;2023-07-29T18:42:43;38.05;;;26.05;;
28802;SDS011;15949;55.656;37.422;2023-07-29T18:47:48;34.88;;;25.08;;
28802;SDS011;15949;55.656;37.422;2023-07-29T18:52:57;33.83;;;23.10;;
28802;SDS011;15949;55.656;37.422;2023-07-29T18:58:03;23.83;;;16.58;;
28802;SDS011;15949;55.656;37.422;2023-07-29T19:03:09;26.75;;;16.55;;
28802;SDS011;15949;55.656;37.422;2023-07-29T19:08:14;22.27;;;16.15;;
28802;SDS011;15949;55.656;37.422;2023-07-29T19:13:20;27.75;;;16.25;;
28802;SDS011;15949;55.656;37.422;2023-07-29T19:18:26;25.00;;;15.93;;
28802;SDS011;15949;55.656;37.422;2023-07-29T19:23:32;25.33;;;15.23;;
28802;SDS011;15949;55.656;37.422;2023-07-29T19:28:38;23.15;;;14.63;;
28802;SDS011;15949;55.656;37.422;2023-07-29T19:33:44;44.72;;;32.70;;
28802;SDS011;15949;55.656;37.422;2023-07-29T19:38:50;90.65;;;58.47;;
28802;SDS011;15949;55.656;37.422;2023-07-29T19:43:55;78.32;;;50.83;;
28802;SDS011;15949;55.656;37.422;2023-07-29T19:49:01;90.72;;;55.95;;
28802;SDS011;15949;55.656;37.422;2023-07-29T19:54:06;80.63;;;52.58;;
28802;SDS011;15949;55.656;37.422;2023-07-29T19:59:12;60.50;;;41.38;;
28802;SDS011;15949;55.656;37.422;2023-07-29T20:04:17;62.67;;;40.10;;
28802;SDS011;15949;55.656;37.422;2023-07-29T20:09:23;44.92;;;28.60;;
28802;SDS011;15949;55.656;37.422;2023-07-29T20:14:29;37.97;;;26.05;;
28802;SDS011;15949;55.656;37.422;2023-07-29T20:19:34;38.80;;;26.88;;
28802;SDS011;15949;55.656;37.422;2023-07-29T20:24:40;33.22;;;21.20;;
28802;SDS011;15949;55.656;37.422;2023-07-29T20:29:45;37.17;;;22.77;;
28802;SDS011;15949;55.656;37.422;2023-07-29T20:34:51;37.63;;;23.15;;
28802;SDS011;15949;55.656;37.422;2023-07-29T20:39:57;27.20;;;19.95;;
28802;SDS011;15949;55.656;37.422;2023-07-29T20:45:03;26.80;;;18.95;;
28802;SDS011;15949;55.656;37.422;2023-07-29T20:50:10;29.80;;;19.73;;
28802;SDS011;15949;55.656;37.422;2023-07-29T20:55:15;33.70;;;21.42;;
28802;SDS011;15949;55.656;37.422;2023-07-29T21:00:21;35.10;;;21.77;;
28802;SDS011;15949;55.656;37.422;2023-07-29T21:05:27;39.72;;;22.25;;
28802;SDS011;15949;55.656;37.422;2023-07-29T21:10:32;36.15;;;22.27;;
28802;SDS011;15949;55.656;37.422;2023-07-29T21:15:38;37.78;;;24.65;;
28802;SDS011;15949;55.656;37.422;2023-07-29T21:20:44;37.83;;;23.90;;
28802;SDS011;15949;55.656;37.422;2023-07-29T21:25:50;44.33;;;23.63;;
28802;SDS011;15949;55.656;37.422;2023-07-29T21:30:56;31.23;;;22.70;;
28802;SDS011;15949;55.656;37.422;2023-07-29T21:36:02;44.38;;;26.08;;
28802;SDS011;15949;55.656;37.422;2023-07-29T21:41:07;44.38;;;27.50;;
28802;SDS011;15949;55.656;37.422;2023-07-29T21:46:13;39.38;;;26.85;;
28802;SDS011;15949;55.656;37.422;2023-07-29T21:51:19;38.60;;;24.00;;
28802;SDS011;15949;55.656;37.422;2023-07-29T21:56:24;34.22;;;23.38;;
28802;SDS011;15949;55.656;37.422;2023-07-29T22:01:30;39.42;;;24.38;;
28802;SDS011;15949;55.656;37.422;2023-07-29T22:06:35;33.40;;;24.35;;
28802;SDS011;15949;55.656;37.422;2023-07-29T22:11:42;36.50;;;23.27;;
28802;SDS011;15949;55.656;37.422;2023-07-29T22:16:47;33.67;;;22.13;;
28802;SDS011;15949;55.656;37.422;2023-07-29T22:21:53;36.10;;;21.95;;
28802;SDS011;15949;55.656;37.422;2023-07-29T22:26:59;35.50;;;21.75;;
28802;SDS011;15949;55.656;37.422;2023-07-29T22:32:05;28.60;;;20.13;;
28802;SDS011;15949;55.656;37.422;2023-07-29T22:37:11;39.13;;;22.58;;
28802;SDS011;15949;55.656;37.422;2023-07-29T22:42:17;40.97;;;23.85;;
28802;SDS011;15949;55.656;37.422;2023-07-29T22:47:22;39.35;;;22.23;;
28802;SDS011;15949;55.656;37.422;2023-07-29T22:52:28;35.97;;;23.30;;
28802;SDS011;15949;55.656;37.422;2023-07-29T22:57:33;28.20;;;18.77;;
28802;SDS011;15949;55.656;37.422;2023-07-29T23:02:39;32.75;;;22.52;;
28802;SDS011;15949;55.656;37.422;2023-07-29T23:07:45;38.00;;;21.80;;
28802;SDS011;15949;55.656;37.422;2023-07-29T23:12:51;36.67;;;21.23;;
28802;SDS011;15949;55.656;37.422;2023-07-29T23:17:56;34.30;;;20.10;;
28802;SDS011;15949;55.656;37.422;2023-07-29T23:23:02;34.03;;;23.02;;
28802;SDS011;15949;55.656;37.422;2023-07-29T23:28:09;46.95;;;25.52;;
28802;SDS011;15949;55.656;37.422;2023-07-29T23:33:14;46.75;;;25.45;;
28802;SDS011;15949;55.656;37.422;2023-07-29T23:38:20;43.45;;;21.70;;
28802;SDS011;15949;55.656;37.422;2023-07-29T23:43:26;44.05;;;24.15;;
28802;SDS011;15949;55.656;37.422;2023-07-29T23:48:32;38.10;;;24.35;;
28802;SDS011;15949;55.656;37.422;2023-07-29T23:53:38;48.20;;;25.98;;
28802;SDS011;15949;55.656;37.422;2023-07-29T23:58:43;41.78;;;23.58;;
